Drone Services

I am a FAA Part 107 Certified Commercial sUAS Pilot. My liability insurance coverage includes up to $10M aviation, and $10K invasion of privacy. My aerial photography and data collection services for the insurance industry include:

  • Roof damage inspections
  • Post-disaster claims inspections (hurricanes, storms, hail, floods, etc.)
  • Aerial foundation, chimney, and other building feature inspections to verify insurance claims
  • Aerial inspections of grounds and related ground features (i.e., pool damage, damage to auxiliary buildings such as sheds, stand alone guest houses greenhouses, etc.) to verify insurance claims

Current Aviation Weather

KLAS 220556Z 20008KT 10SM FEW046 BKN095 OVC110 16/03 A2958 RMK AO2 WSHFT 0517 RAB07E51 SLP004 VIS LWR S VCSH P0000 60000 T01560033 10228 20150 50006 $

TAF KLAS 220520Z 2206/2312 06010KT P6SM VCSH FEW060 BKN080 FM220800 20007KT P6SM BKN100 FM221800 05007KT P6SM VCSH BKN080 FM230200 22007KT P6SM VCSH BKN060 FM230600 17006KT P6SM SHRA SCT030 BKN050